createdAt,value
2023-01-29T00:00:53.661Z,1013.1855426164219
2023-01-29T00:05:49.927Z,1013.1828911922235
2023-01-29T00:10:46.166Z,1013.280672044567
2023-01-29T00:15:42.388Z,1013.3715261437583
2023-01-29T00:20:38.678Z,1013.3440092532244
2023-01-29T00:25:34.914Z,1013.4003686090354
2023-01-29T00:30:31.236Z,1013.3694012488215
2023-01-29T00:35:27.445Z,1013.3561370721214
2023-01-29T00:40:23.706Z,1013.4453489234118
2023-01-29T00:45:19.954Z,1013.4815138003522
2023-01-29T00:50:16.703Z,1013.5004021351211
2023-01-29T00:55:13.475Z,1013.5318294818118
2023-01-29T01:00:11.775Z,1013.5240523382246
2023-01-29T01:05:09.022Z,1013.5153727977184
2023-01-29T01:10:06.253Z,1013.5231621328353
2023-01-29T01:15:02.554Z,1013.5785721199506
2023-01-29T01:19:57.775Z,1013.5089044776963
2023-01-29T01:24:53.054Z,1013.5895817028667
2023-01-29T01:29:48.291Z,1013.6217808268636
2023-01-29T01:34:44.559Z,1013.5487969978313
2023-01-29T01:39:40.812Z,1013.55978875549
2023-01-29T01:44:47.064Z,1013.5672231488394
2023-01-29T01:49:46.345Z,1013.6315779645171
2023-01-29T01:54:44.595Z,1013.6575178054647
2023-01-29T01:59:43.820Z,1013.6246008784439
2023-01-29T02:04:46.062Z,1013.6676814293515
2023-01-29T02:09:50.279Z,1013.7089187991224
2023-01-29T02:14:46.587Z,1013.6913702021075
2023-01-29T02:19:50.806Z,1013.7948741924624
2023-01-29T02:24:59.018Z,1013.7767129269029
2023-01-29T02:30:03.238Z,1013.7986246361
2023-01-29T02:35:09.525Z,1013.8580387023666
2023-01-29T02:40:10.718Z,1013.8750397354958
2023-01-29T02:45:11.974Z,1013.9380083112602
2023-01-29T02:50:14.777Z,1014.0255616142326
2023-01-29T02:55:16.491Z,1013.9647805820873
2023-01-29T03:00:18.176Z,1014.1328787952418
2023-01-29T03:05:21.002Z,1014.0668813859801
2023-01-29T03:10:23.209Z,1014.0731383112791
2023-01-29T03:15:23.432Z,1014.1121408011273
2023-01-29T03:20:22.703Z,1014.2467310653109
2023-01-29T03:25:22.956Z,1014.2428019513849
2023-01-29T03:30:21.193Z,1014.2676550829517
2023-01-29T03:35:22.453Z,1014.3558185640146
2023-01-29T03:40:18.255Z,1014.2066582453496
2023-01-29T03:45:22.936Z,1014.2815952132877
2023-01-29T03:50:31.190Z,1014.2522425560317
2023-01-29T03:55:33.436Z,1014.3154080763321
2023-01-29T04:00:37.653Z,1014.2537203283468
2023-01-29T04:05:39.930Z,1014.3146021482245
2023-01-29T04:10:40.196Z,1014.2514785027083
2023-01-29T04:15:40.411Z,1014.3631525370963
2023-01-29T04:20:37.695Z,1014.3036738728041
2023-01-29T04:25:40.965Z,1014.3282160357718
2023-01-29T04:30:46.240Z,1014.3282160357718
2023-01-29T04:35:54.378Z,1014.3100273641378
2023-01-29T04:40:55.656Z,1014.2609666037813
2023-01-29T04:46:02.844Z,1014.2974117686151
2023-01-29T04:51:06.096Z,1014.3351386273316
2023-01-29T04:56:08.339Z,1014.2625110852349
2023-01-29T05:01:10.602Z,1014.4339684096749
2023-01-29T05:06:07.868Z,1014.3713839614784
2023-01-29T05:11:06.066Z,1014.5136159720724
2023-01-29T05:16:09.403Z,1014.6303987751083
2023-01-29T05:21:06.619Z,1014.682079921407
2023-01-29T05:26:03.820Z,1014.6864485330922
2023-01-29T05:31:00.230Z,1014.7397180697401
2023-01-29T05:35:58.415Z,1014.7460036504713
2023-01-29T05:40:54.644Z,1014.798553729015
2023-01-29T05:45:51.893Z,1014.8445341702673
2023-01-29T05:50:48.134Z,1014.970006402045
2023-01-29T05:55:44.414Z,1014.8894598637116
2023-01-29T06:00:40.651Z,1014.9360479368747
2023-01-29T06:05:37.916Z,1014.9683239190902
2023-01-29T06:10:34.187Z,1014.974397061504
2023-01-29T06:15:30.429Z,1014.9499078910059
2023-01-29T06:20:26.741Z,1015.006117042177
2023-01-29T06:25:22.935Z,1015.0827265848344
2023-01-29T06:30:19.432Z,1015.2404019136719
2023-01-29T06:35:15.448Z,1015.2009609041077
2023-01-29T06:40:10.736Z,1015.2245441468693
2023-01-29T06:45:07.980Z,1015.2756269554986
2023-01-29T06:50:04.234Z,1015.2635005465154
2023-01-29T06:55:00.529Z,1015.305006060692
2023-01-29T06:59:55.802Z,1015.4095084384031
2023-01-29T07:04:52.026Z,1015.4832925268082
2023-01-29T07:09:48.287Z,1015.519505379064
2023-01-29T07:14:44.605Z,1015.5606547256393
2023-01-29T07:19:40.823Z,1015.5857090945012
2023-01-29T07:24:37.084Z,1015.5698217143948
2023-01-29T07:29:33.372Z,1015.6287632102815
2023-01-29T07:34:29.558Z,1015.5879056863482
2023-01-29T07:39:25.804Z,1015.5677243585317
2023-01-29T07:44:22.121Z,1015.5903239304716
2023-01-29T07:49:18.363Z,1015.6068931350691
2023-01-29T07:54:14.609Z,1015.7549702125445
2023-01-29T07:59:10.882Z,1015.736560250988
2023-01-29T08:04:07.198Z,1015.7761118269395
2023-01-29T08:09:03.398Z,1015.8332654478625
2023-01-29T08:13:59.678Z,1015.795657692239
2023-01-29T08:18:55.970Z,1015.844492394206
2023-01-29T08:23:52.174Z,1015.9436444147581
2023-01-29T08:28:48.439Z,1015.8963331621806
2023-01-29T08:33:43.714Z,1015.8864886329518
2023-01-29T08:38:40.931Z,1015.994772618519
2023-01-29T08:43:38.189Z,1015.9166705783397
2023-01-29T08:48:34.475Z,1015.9752041423031
2023-01-29T08:53:30.717Z,1016.0637311851511
2023-01-29T08:58:26.988Z,1015.9734660095605
2023-01-29T09:03:23.259Z,1015.9333967468659
2023-01-29T09:08:19.507Z,1015.9300380026277
2023-01-29T09:13:15.833Z,1015.9125068196689
2023-01-29T09:18:11.057Z,1015.9400897803406
2023-01-29T09:23:07.307Z,1015.9136374950117
2023-01-29T09:28:03.588Z,1015.9202631168394
2023-01-29T09:32:59.820Z,1015.797118362283
2023-01-29T09:37:56.078Z,1015.7490902867318
2023-01-29T09:42:57.300Z,1015.7688475388244
2023-01-29T09:47:57.570Z,1015.7382192680714
2023-01-29T09:52:58.850Z,1015.8199629183472
2023-01-29T09:57:58.059Z,1015.7699946901485
2023-01-29T10:03:14.285Z,1015.7735184945824
2023-01-29T10:08:24.522Z,1015.7202839682836
2023-01-29T10:13:32.709Z,1015.6952938203206
2023-01-29T10:23:50.176Z,1015.8504896217122
2023-01-29T10:28:50.419Z,1015.8478734991706
2023-01-29T10:34:02.072Z,1015.6702647810285
2023-01-29T10:38:59.917Z,1015.6982266296596
2023-01-29T10:44:10.098Z,1015.6358364677939
2023-01-29T10:49:19.375Z,1015.7129512279416
2023-01-29T10:54:28.551Z,1015.7219586242994
2023-01-29T10:59:35.840Z,1015.7200272320572
2023-01-29T11:04:34.061Z,1015.7234204906464
2023-01-29T11:09:35.351Z,1015.6464889015571
2023-01-29T11:14:38.564Z,1015.6055844978358
2023-01-29T11:19:37.790Z,1015.5608075031683
2023-01-29T11:24:38.087Z,1015.5675216204866
2023-01-29T11:29:39.303Z,1015.5676585259125
2023-01-29T11:34:41.577Z,1015.6461738745135
2023-01-29T11:39:43.846Z,1015.5943132380335
2023-01-29T11:44:45.051Z,1015.6683331317602
2023-01-29T11:49:50.263Z,1015.6055844978358
2023-01-29T11:54:50.545Z,1015.6500755883088
2023-01-29T11:59:57.772Z,1015.6457871052879
2023-01-29T12:04:58.002Z,1015.5552995365629
2023-01-29T12:09:56.232Z,1015.5745588081151
2023-01-29T12:15:01.491Z,1015.4914391442553
2023-01-29T12:20:03.740Z,1015.4656343706406
2023-01-29T12:25:07.982Z,1015.3532426887311
2023-01-29T12:30:53.225Z,1015.2961814703996
2023-01-29T12:35:54.422Z,1015.2332975282462
2023-01-29T12:40:55.599Z,1015.2441519923082
2023-01-29T12:45:54.887Z,1015.1252027609697
2023-01-29T12:50:53.125Z,1015.0497666258552
2023-01-29T12:55:53.357Z,1015.0696179307192
2023-01-29T13:00:54.638Z,1015.1101476643624
2023-01-29T13:05:55.831Z,1015.1684422211881
2023-01-29T13:10:57.083Z,1015.1092325915268
2023-01-29T13:15:56.373Z,1015.0998555425882
2023-01-29T13:20:56.612Z,1015.0792571824281
2023-01-29T13:25:52.895Z,1015.1557374968794
2023-01-29T13:31:06.074Z,1015.1147370843998
2023-01-29T13:36:02.319Z,1015.0341668035434
2023-01-29T13:41:01.618Z,1015.0887466558838
2023-01-29T13:46:06.855Z,1015.1037867752228
2023-01-29T13:51:11.081Z,1014.9765906449802
2023-01-29T13:56:18.347Z,1014.984745741337
2023-01-29T14:01:25.607Z,1014.9673813657117
2023-01-29T14:06:35.793Z,1015.0419268199059
2023-01-29T14:11:36.027Z,1014.9455011965562
2023-01-29T14:16:42.714Z,1015.0019468508161
2023-01-29T14:21:48.498Z,1015.0314195502818
2023-01-29T14:26:54.710Z,1015.108020019867
2023-01-29T14:31:57.936Z,1015.0345364217309
2023-01-29T14:36:58.219Z,1015.0816532576372
2023-01-29T14:41:57.451Z,1015.1158055777639
2023-01-29T14:47:02.683Z,1014.9949458992127
2023-01-29T14:52:03.962Z,1015.010774319823
2023-01-29T14:57:05.225Z,1015.0012378596803
2023-01-29T15:02:09.570Z,1014.8810218300175
2023-01-29T15:07:15.704Z,1014.9271359910247
2023-01-29T15:12:19.932Z,1014.8628095136083
2023-01-29T15:17:26.109Z,1014.8721981962243
2023-01-29T15:22:31.371Z,1014.8125135352866
2023-01-29T15:27:27.605Z,1014.7960279217352
2023-01-29T15:32:25.881Z,1014.9469370714754
2023-01-29T15:37:25.115Z,1014.8187364332666
2023-01-29T15:42:21.376Z,1014.857900440916
2023-01-29T15:47:20.643Z,1014.8185771482968
2023-01-29T15:52:19.864Z,1014.8168932373784
2023-01-29T15:57:20.145Z,1014.7570145082708
2023-01-29T16:02:27.413Z,1014.9491136376638
2023-01-29T16:07:24.673Z,1014.9503964186763
2023-01-29T16:12:20.904Z,1014.9083886411056
2023-01-29T16:17:22.162Z,1014.9750081824428
2023-01-29T16:22:22.399Z,1015.1605386913186
2023-01-29T16:27:19.651Z,1015.2521437277136
2023-01-29T16:32:17.052Z,1015.3365595088576
2023-01-29T16:37:19.212Z,1015.2559594383592
2023-01-29T16:42:20.398Z,1015.288005925429
2023-01-29T16:47:22.625Z,1015.3832534105651
2023-01-29T16:57:29.145Z,1015.4180860903692
2023-01-29T17:02:27.393Z,1015.3453384353996
2023-01-29T17:07:26.644Z,1015.4371090361196
2023-01-29T17:12:25.891Z,1015.4233956178825
2023-01-29T17:17:29.137Z,1015.4075794032299
2023-01-29T17:22:25.377Z,1015.4064813252993
2023-01-29T17:27:22.619Z,1015.3840569514791
2023-01-29T17:32:18.918Z,1015.3945476369163
2023-01-29T17:37:15.166Z,1015.345788812945
2023-01-29T17:42:12.417Z,1015.3994421467356
2023-01-29T17:47:11.683Z,1015.3299571968396
2023-01-29T17:52:07.924Z,1015.3098204834721
2023-01-29T17:57:04.184Z,1015.2395630030702
2023-01-29T18:02:00.506Z,1015.2061160668427
2023-01-29T18:06:58.719Z,1015.178435280044
2023-01-29T18:11:55.029Z,1015.2638220963712
2023-01-29T18:16:51.414Z,1015.2602816208674
2023-01-29T18:21:47.479Z,1015.1955522377834
2023-01-29T18:26:43.834Z,1015.2055589939705
2023-01-29T18:31:39.998Z,1015.189030434094
2023-01-29T18:36:36.299Z,1015.2255430506135
2023-01-29T18:41:36.524Z,1015.2092298553107
2023-01-29T18:46:32.817Z,1015.1894239339293
2023-01-29T18:51:29.012Z,1015.0692700103803
2023-01-29T18:56:31.255Z,1015.1079593017638
2023-01-29T19:01:37.524Z,1015.0754889998127
2023-01-29T19:06:38.735Z,1015.0715254300402
2023-01-29T19:11:38.978Z,1014.9741641880954
2023-01-29T19:16:39.229Z,1015.0850721139578
2023-01-29T19:21:40.511Z,1014.9324678176033
2023-01-29T19:26:40.738Z,1014.977540886783
2023-01-29T19:31:41.081Z,1014.8884453770415
2023-01-29T19:36:41.214Z,1015.0169257389697
2023-01-29T19:41:37.676Z,1015.0718861038599
2023-01-29T19:46:37.735Z,1014.9465958046745
2023-01-29T19:51:39.012Z,1015.0034588009909
2023-01-29T19:56:40.293Z,1015.0794273446706
2023-01-29T20:01:44.537Z,1015.0718472392407
2023-01-29T20:06:45.729Z,1015.058778354524
2023-01-29T20:11:45.986Z,1015.0760673833491
2023-01-29T20:16:46.240Z,1015.0399756894299
2023-01-29T20:21:47.502Z,1015.1036224266152
2023-01-29T20:26:47.792Z,1015.1145926154894
2023-01-29T20:31:44.065Z,1015.0566417962145
2023-01-29T20:36:41.229Z,1015.0467585583802
2023-01-29T20:41:38.505Z,1015.0242183275357
2023-01-29T20:46:35.783Z,1014.9482651804246
2023-01-29T20:51:38.004Z,1014.8628069416244
2023-01-29T20:56:38.377Z,1014.8789447542362
2023-01-29T21:01:40.512Z,1014.9134542209745
2023-01-29T21:06:41.752Z,1014.8965868625056
2023-01-29T21:11:42.012Z,1014.8565591708559
2023-01-29T21:16:38.284Z,1014.8548166496554
2023-01-29T21:21:34.534Z,1014.8974205166619
2023-01-29T21:26:32.775Z,1014.8626424837229
2023-01-29T21:31:35.030Z,1014.8628611590882
2023-01-29T21:36:31.258Z,1014.8097206983416
2023-01-29T21:41:31.543Z,1014.8532119297477
2023-01-29T21:46:27.769Z,1014.8278576872985
2023-01-29T21:51:28.026Z,1014.760225830268
2023-01-29T21:56:24.262Z,1014.6269323651064
2023-01-29T22:01:37.498Z,1014.5833238980271
2023-01-29T22:06:24.836Z,1014.5988278376949
2023-01-29T22:11:21.065Z,1014.5709465742127
2023-01-29T22:16:17.302Z,1014.5396915688375
2023-01-29T22:21:13.580Z,1014.5232780744747
2023-01-29T22:26:10.888Z,1014.4794976561108
2023-01-29T22:31:07.105Z,1014.5024277998901
2023-01-29T22:36:03.336Z,1014.4622622753861
2023-01-29T22:40:59.595Z,1014.4817883222462
2023-01-29T22:45:55.877Z,1014.457507013845
2023-01-29T22:50:56.133Z,1014.4687845724703
2023-01-29T22:55:53.392Z,1014.3841672230378
2023-01-29T23:00:49.597Z,1014.4134316254735
2023-01-29T23:05:45.906Z,1014.4032159211057
2023-01-29T23:10:43.128Z,1014.4037144681845
2023-01-29T23:15:39.461Z,1014.3694073553904
2023-01-29T23:20:35.625Z,1014.347669973557
2023-01-29T23:25:31.942Z,1014.3478105124291
2023-01-29T23:30:28.235Z,1014.2928556748917
2023-01-29T23:35:24.430Z,1014.2084165471828
2023-01-29T23:40:20.702Z,1014.183218251724
2023-01-29T23:45:16.940Z,1014.1304313517423
2023-01-29T23:50:13.245Z,1014.1577518643785
2023-01-29T23:55:09.466Z,1014.1238752637129
